createdAt,value
2023-01-19T00:00:47.271Z,7.99
2023-01-19T00:03:16.386Z,8.49
2023-01-19T00:05:48.804Z,8.42
2023-01-19T00:08:15.703Z,7.53
2023-01-19T00:10:46.990Z,8.21
2023-01-19T00:13:14.039Z,7.60
2023-01-19T00:15:41.016Z,8.11
2023-01-19T00:18:09.836Z,7.54
2023-01-19T00:20:37.770Z,7.52
2023-01-19T00:23:04.975Z,7.92
2023-01-19T00:25:32.094Z,7.39
2023-01-19T00:28:01.372Z,7.50
2023-01-19T00:30:28.524Z,7.47
2023-01-19T00:32:55.367Z,7.81
2023-01-19T00:35:22.125Z,7.74
2023-01-19T00:37:48.862Z,7.74
2023-01-19T00:40:15.969Z,7.81
2023-01-19T00:42:45.422Z,7.81
2023-01-19T00:45:15.760Z,7.83
2023-01-19T00:47:42.642Z,7.82
2023-01-19T00:50:11.804Z,7.07
2023-01-19T00:52:39.945Z,7.36
2023-01-19T00:55:11.024Z,7.49
2023-01-19T00:57:38.561Z,6.99
2023-01-19T01:00:06.773Z,7.60
2023-01-19T01:02:34.156Z,7.36
2023-01-19T01:05:02.992Z,7.63
2023-01-19T01:07:30.339Z,7.64
2023-01-19T01:09:57.539Z,7.04
2023-01-19T01:12:24.489Z,7.36
2023-01-19T01:14:51.497Z,7.02
2023-01-19T01:17:24.933Z,7.12
2023-01-19T01:19:52.759Z,7.33
2023-01-19T01:22:19.535Z,7.19
2023-01-19T01:24:46.322Z,7.33
2023-01-19T01:27:13.497Z,7.44
2023-01-19T01:29:41.361Z,7.18
2023-01-19T01:32:08.483Z,7.09
2023-01-19T01:34:35.656Z,6.98
2023-01-19T01:37:03.047Z,7.29
2023-01-19T01:39:29.909Z,6.73
2023-01-19T01:41:57.623Z,7.24
2023-01-19T01:44:50.347Z,7.19
2023-01-19T01:47:39.984Z,7.15
2023-01-19T01:50:22.845Z,7.08
2023-01-19T01:53:11.390Z,7.03
2023-01-19T01:55:41.930Z,6.94
2023-01-19T01:58:08.920Z,6.76
2023-01-19T02:00:54.559Z,6.49
2023-01-19T02:03:22.903Z,6.85
2023-01-19T02:05:49.732Z,6.92
2023-01-19T02:09:04.439Z,6.73
2023-01-19T02:11:49.811Z,6.73
2023-01-19T02:14:16.749Z,6.94
2023-01-19T02:16:43.648Z,6.55
2023-01-19T02:19:13.567Z,6.75
2023-01-19T02:22:02.473Z,6.68
2023-01-19T02:24:29.536Z,6.67
2023-01-19T02:26:56.352Z,6.84
2023-01-19T02:29:24.530Z,6.79
2023-01-19T02:31:51.441Z,6.59
2023-01-19T02:34:19.433Z,6.37
2023-01-19T02:36:50.750Z,6.73
2023-01-19T02:39:22.195Z,6.52
2023-01-19T02:41:55.115Z,6.30
2023-01-19T02:44:22.091Z,6.72
2023-01-19T02:46:49.065Z,6.89
2023-01-19T02:49:15.963Z,6.98
2023-01-19T02:51:43.588Z,6.85
2023-01-19T02:54:33.104Z,7.02
2023-01-19T02:57:12.099Z,6.99
2023-01-19T02:59:48.837Z,6.67
2023-01-19T03:02:21.549Z,6.97
2023-01-19T03:05:08.708Z,6.96
2023-01-19T03:07:44.872Z,6.97
2023-01-19T03:10:17.176Z,6.96
2023-01-19T03:13:10.860Z,6.96
2023-01-19T03:15:52.510Z,6.63
2023-01-19T03:18:20.852Z,6.74
2023-01-19T03:20:47.835Z,6.53
2023-01-19T03:23:15.025Z,6.82
2023-01-19T03:25:43.845Z,6.80
2023-01-19T03:28:10.704Z,6.79
2023-01-19T03:30:40.476Z,6.33
2023-01-19T03:33:34.181Z,6.74
2023-01-19T03:36:07.481Z,6.02
2023-01-19T03:38:37.104Z,6.35
2023-01-19T03:41:07.330Z,6.71
2023-01-19T03:43:37.013Z,6.44
2023-01-19T03:46:04.681Z,6.44
2023-01-19T03:48:31.753Z,6.45
2023-01-19T03:51:14.660Z,6.35
2023-01-19T03:53:41.930Z,6.58
2023-01-19T03:56:22.207Z,6.67
2023-01-19T03:58:49.077Z,6.60
2023-01-19T04:01:29.918Z,5.62
2023-01-19T04:04:00.879Z,6.16
2023-01-19T04:06:30.663Z,6.48
2023-01-19T04:08:57.562Z,6.27
2023-01-19T04:11:25.425Z,6.85
2023-01-19T04:13:52.156Z,6.51
2023-01-19T04:16:21.302Z,6.66
2023-01-19T04:18:48.722Z,6.79
2023-01-19T04:21:15.893Z,6.67
2023-01-19T04:23:44.471Z,6.47
2023-01-19T04:26:11.338Z,6.16
2023-01-19T04:28:38.261Z,5.83
2023-01-19T04:31:06.052Z,6.52
2023-01-19T04:33:33.186Z,6.20
2023-01-19T04:36:00.106Z,6.43
2023-01-19T04:38:26.933Z,6.10
2023-01-19T04:40:54.218Z,6.31
2023-01-19T04:43:21.661Z,6.23
2023-01-19T04:45:49.245Z,6.27
2023-01-19T04:48:16.684Z,5.83
2023-01-19T04:50:43.675Z,6.11
2023-01-19T04:53:11.168Z,6.15
2023-01-19T04:55:39.697Z,6.12
2023-01-19T04:58:06.472Z,6.51
2023-01-19T05:00:33.913Z,6.87
2023-01-19T05:03:01.940Z,6.82
2023-01-19T05:05:29.226Z,6.60
2023-01-19T05:07:56.122Z,5.77
2023-01-19T05:10:24.046Z,6.51
2023-01-19T05:12:51.490Z,6.47
2023-01-19T05:15:18.348Z,6.97
2023-01-19T05:17:45.337Z,6.63
2023-01-19T05:20:15.703Z,6.65
2023-01-19T05:22:43.410Z,6.79
2023-01-19T05:25:10.353Z,5.92
2023-01-19T05:27:37.623Z,6.34
2023-01-19T05:30:05.719Z,5.79
2023-01-19T05:32:32.961Z,6.63
2023-01-19T05:34:59.900Z,5.90
2023-01-19T05:37:26.671Z,6.32
2023-01-19T05:39:53.795Z,6.35
2023-01-19T05:42:21.039Z,6.24
2023-01-19T05:44:47.855Z,6.62
2023-01-19T05:47:14.636Z,6.36
2023-01-19T05:49:41.438Z,6.60
2023-01-19T05:52:08.249Z,5.84
2023-01-19T05:54:35.261Z,6.46
2023-01-19T05:57:03.346Z,6.35
2023-01-19T05:59:30.091Z,6.02
2023-01-19T06:01:57.388Z,6.32
2023-01-19T06:04:24.689Z,5.64
2023-01-19T06:06:51.917Z,6.09
2023-01-19T06:09:18.772Z,6.06
2023-01-19T06:11:46.410Z,5.68
2023-01-19T06:14:13.505Z,5.50
2023-01-19T06:16:40.489Z,5.85
2023-01-19T06:19:07.650Z,5.82
2023-01-19T06:21:34.499Z,5.52
2023-01-19T06:24:01.380Z,5.58
2023-01-19T06:26:28.303Z,5.75
2023-01-19T06:28:55.441Z,5.91
2023-01-19T06:31:22.337Z,5.53
2023-01-19T06:33:49.363Z,5.37
2023-01-19T06:36:16.248Z,5.79
2023-01-19T06:38:43.020Z,6.08
2023-01-19T06:41:10.019Z,5.64
2023-01-19T06:43:36.795Z,5.97
2023-01-19T06:46:04.989Z,4.55
2023-01-19T06:48:31.985Z,5.74
2023-01-19T06:50:59.880Z,5.54
2023-01-19T06:53:28.290Z,5.80
2023-01-19T06:55:59.369Z,5.46
2023-01-19T06:58:26.305Z,6.12
2023-01-19T07:00:53.255Z,5.84
2023-01-19T07:03:21.682Z,6.02
2023-01-19T07:05:51.855Z,5.71
2023-01-19T07:08:18.723Z,5.94
2023-01-19T07:11:22.193Z,5.83
2023-01-19T07:13:33.525Z,5.70
2023-01-19T07:16:10.732Z,5.65
2023-01-19T07:18:38.002Z,5.67
2023-01-19T07:21:05.361Z,5.64
2023-01-19T07:23:32.339Z,5.65
2023-01-19T07:26:01.069Z,5.75
2023-01-19T07:28:28.678Z,5.74
2023-01-19T07:30:55.772Z,5.17
2023-01-19T07:33:22.610Z,5.56
2023-01-19T07:35:49.652Z,5.47
2023-01-19T07:38:16.749Z,5.76
2023-01-19T07:40:43.645Z,5.57
2023-01-19T07:43:10.664Z,5.81
2023-01-19T07:45:37.582Z,5.83
2023-01-19T07:48:04.406Z,5.52
2023-01-19T07:50:31.622Z,5.81
2023-01-19T07:52:58.951Z,5.72
2023-01-19T07:55:26.009Z,5.93
2023-01-19T07:57:52.860Z,5.43
2023-01-19T08:00:22.302Z,5.97
2023-01-19T08:02:51.960Z,5.58
2023-01-19T08:05:19.228Z,5.27
2023-01-19T08:07:46.579Z,5.90
2023-01-19T08:10:14.002Z,5.89
2023-01-19T08:12:42.251Z,6.01
2023-01-19T08:15:10.350Z,5.67
2023-01-19T08:17:37.552Z,5.97
2023-01-19T08:20:04.743Z,6.21
2023-01-19T08:22:31.586Z,6.36
2023-01-19T08:24:59.098Z,5.59
2023-01-19T08:27:25.948Z,6.50
2023-01-19T08:29:54.728Z,5.97
2023-01-19T08:32:21.691Z,6.38
2023-01-19T08:34:48.497Z,6.58
2023-01-19T08:37:15.305Z,6.44
2023-01-19T08:39:42.187Z,6.58
2023-01-19T08:42:09.458Z,5.87
2023-01-19T08:44:39.396Z,6.54
2023-01-19T08:47:10.666Z,6.61
2023-01-19T08:49:37.561Z,6.61
2023-01-19T08:52:04.491Z,6.59
2023-01-19T08:54:31.308Z,6.57
2023-01-19T08:56:58.332Z,6.75
2023-01-19T08:59:25.074Z,6.97
2023-01-19T09:01:51.906Z,6.77
2023-01-19T09:04:20.344Z,6.75
2023-01-19T09:06:47.067Z,6.88
2023-01-19T09:09:14.404Z,7.00
2023-01-19T09:11:41.408Z,7.01
2023-01-19T09:14:08.686Z,6.86
2023-01-19T09:16:35.914Z,6.59
2023-01-19T09:19:02.688Z,6.93
2023-01-19T09:21:29.633Z,6.95
2023-01-19T09:23:56.566Z,7.26
2023-01-19T09:26:24.080Z,7.34
2023-01-19T09:28:50.865Z,7.26
2023-01-19T09:31:17.958Z,7.89
2023-01-19T09:33:44.864Z,8.06
2023-01-19T09:36:11.861Z,7.51
2023-01-19T09:38:38.853Z,7.79
2023-01-19T09:41:13.076Z,7.98
2023-01-19T09:43:42.004Z,7.60
2023-01-19T09:46:21.865Z,7.73
2023-01-19T09:48:52.917Z,7.59
2023-01-19T09:51:22.786Z,7.63
2023-01-19T09:54:08.332Z,7.64
2023-01-19T09:56:35.212Z,7.57
2023-01-19T09:59:02.199Z,7.38
2023-01-19T10:01:46.245Z,7.15
2023-01-19T10:04:28.470Z,7.49
2023-01-19T10:07:10.417Z,7.57
2023-01-19T10:09:43.256Z,7.65
2023-01-19T10:12:19.819Z,7.03
2023-01-19T10:15:01.777Z,7.60
2023-01-19T10:17:28.900Z,7.87
2023-01-19T10:19:55.841Z,7.63
2023-01-19T10:22:24.507Z,8.17
2023-01-19T10:25:01.792Z,8.26
2023-01-19T10:27:32.415Z,8.20
2023-01-19T10:29:59.238Z,7.95
2023-01-19T10:32:27.948Z,8.13
2023-01-19T10:34:55.101Z,8.27
2023-01-19T10:37:30.433Z,8.49
2023-01-19T10:40:09.475Z,8.49
2023-01-19T10:42:37.124Z,8.55
2023-01-19T10:45:05.189Z,8.59
2023-01-19T10:47:34.673Z,8.65
2023-01-19T10:50:06.641Z,8.25
2023-01-19T10:52:36.131Z,8.80
2023-01-19T10:55:03.686Z,8.63
2023-01-19T10:57:43.541Z,8.59
2023-01-19T11:00:32.610Z,8.60
2023-01-19T11:03:00.209Z,9.09
2023-01-19T11:05:31.866Z,9.27
2023-01-19T11:07:58.702Z,9.28
2023-01-19T11:10:27.150Z,9.31
2023-01-19T11:13:12.777Z,9.39
2023-01-19T11:15:43.429Z,9.63
2023-01-19T11:18:30.882Z,9.58
2023-01-19T11:21:01.174Z,9.81
2023-01-19T11:23:43.370Z,9.57
2023-01-19T11:26:16.621Z,10.01
2023-01-19T11:28:46.825Z,10.05
2023-01-19T11:31:13.662Z,10.18
2023-01-19T11:33:50.540Z,10.25
2023-01-19T11:36:17.765Z,10.29
2023-01-19T11:38:45.707Z,9.30
2023-01-19T11:41:19.406Z,9.98
2023-01-19T11:43:49.204Z,9.99
2023-01-19T11:46:16.511Z,10.10
2023-01-19T11:48:47.690Z,10.39
2023-01-19T11:51:16.128Z,10.38
2023-01-19T11:53:43.682Z,9.95
2023-01-19T11:56:11.466Z,10.04
2023-01-19T11:58:39.890Z,10.25
2023-01-19T12:01:11.668Z,9.99
2023-01-19T12:03:47.077Z,10.18
2023-01-19T12:06:22.333Z,10.18
2023-01-19T12:08:54.013Z,10.39
2023-01-19T12:11:26.885Z,10.17
2023-01-19T12:13:53.922Z,10.41
2023-01-19T12:16:21.824Z,10.13
2023-01-19T12:18:54.927Z,10.23
2023-01-19T12:21:21.721Z,10.40
2023-01-19T12:23:54.159Z,10.43
2023-01-19T12:26:37.171Z,10.46
2023-01-19T12:29:15.560Z,10.27
2023-01-19T12:31:45.356Z,9.92
2023-01-19T12:34:31.369Z,10.51
2023-01-19T12:37:03.492Z,10.32
2023-01-19T12:39:30.806Z,10.37
2023-01-19T12:42:04.680Z,10.53
2023-01-19T12:44:34.555Z,10.26
2023-01-19T12:47:11.160Z,10.59
2023-01-19T12:49:38.167Z,10.57
2023-01-19T12:52:18.338Z,10.60
2023-01-19T12:54:50.703Z,10.43
2023-01-19T12:57:28.605Z,10.36
2023-01-19T13:00:00.257Z,10.69
2023-01-19T13:02:27.186Z,10.69
2023-01-19T13:05:20.834Z,10.68
2023-01-19T13:08:27.492Z,10.61
2023-01-19T13:11:00.752Z,10.67
2023-01-19T13:13:46.694Z,10.49
2023-01-19T13:16:19.810Z,10.67
2023-01-19T13:18:48.465Z,10.65
2023-01-19T13:21:26.250Z,10.41
2023-01-19T13:23:57.656Z,10.64
2023-01-19T13:26:26.039Z,10.14
2023-01-19T13:28:55.182Z,10.14
2023-01-19T13:31:22.113Z,10.29
2023-01-19T13:33:55.872Z,10.75
2023-01-19T13:36:32.798Z,10.80
2023-01-19T13:39:01.447Z,10.85
2023-01-19T13:41:30.218Z,10.89
2023-01-19T13:44:36.467Z,10.91
2023-01-19T13:47:03.772Z,10.78
2023-01-19T13:49:37.489Z,10.85
2023-01-19T13:52:17.437Z,10.94
2023-01-19T13:54:53.532Z,10.95
2023-01-19T13:57:27.316Z,10.48
2023-01-19T14:00:12.975Z,10.97
2023-01-19T14:02:56.657Z,10.97
2023-01-19T14:05:33.864Z,10.99
2023-01-19T14:08:12.139Z,11.01
2023-01-19T14:10:54.207Z,11.03
2023-01-19T14:13:26.026Z,10.91
2023-01-19T14:15:57.547Z,10.80
2023-01-19T14:18:30.568Z,10.81
2023-01-19T14:21:08.633Z,11.05
2023-01-19T14:23:43.854Z,10.86
2023-01-19T14:26:39.422Z,11.06
2023-01-19T14:29:18.504Z,11.05
2023-01-19T14:31:52.875Z,11.05
2023-01-19T14:34:47.670Z,11.04
2023-01-19T14:37:17.409Z,11.05
2023-01-19T14:39:46.725Z,10.91
2023-01-19T14:42:19.366Z,11.04
2023-01-19T14:44:48.387Z,10.75
2023-01-19T14:47:36.234Z,11.01
2023-01-19T14:50:07.900Z,10.77
2023-01-19T14:52:39.973Z,10.48
2023-01-19T14:55:08.620Z,10.99
2023-01-19T14:57:36.773Z,10.91
2023-01-19T15:00:12.816Z,10.78
2023-01-19T15:02:39.679Z,10.88
2023-01-19T15:05:08.931Z,10.86
2023-01-19T15:07:37.260Z,9.47
2023-01-19T15:10:04.238Z,8.98
2023-01-19T15:12:31.089Z,10.44
2023-01-19T15:14:58.017Z,10.99
2023-01-19T15:17:27.521Z,10.71
2023-01-19T15:19:55.059Z,10.52
2023-01-19T15:22:26.326Z,11.08
2023-01-19T15:24:57.644Z,10.73
2023-01-19T15:27:24.530Z,11.14
2023-01-19T15:29:51.549Z,11.01
2023-01-19T15:32:18.391Z,11.03
2023-01-19T15:34:45.364Z,10.77
2023-01-19T15:37:12.309Z,11.19
2023-01-19T15:39:39.990Z,10.83
2023-01-19T15:42:11.331Z,10.77
2023-01-19T15:44:40.049Z,10.94
2023-01-19T15:47:06.874Z,10.25
2023-01-19T15:49:33.707Z,10.07
2023-01-19T15:52:00.815Z,10.82
2023-01-19T15:54:27.950Z,11.12
2023-01-19T15:56:58.329Z,10.89
2023-01-19T15:59:25.502Z,10.53
2023-01-19T16:01:52.544Z,10.49
2023-01-19T16:04:19.647Z,11.25
2023-01-19T16:06:46.611Z,10.76
2023-01-19T16:09:18.607Z,11.07
2023-01-19T16:11:49.837Z,10.57
2023-01-19T16:14:18.014Z,10.77
2023-01-19T16:16:46.285Z,10.23
2023-01-19T16:19:15.101Z,10.47
2023-01-19T16:21:44.001Z,11.12
2023-01-19T16:24:10.782Z,11.11
2023-01-19T16:26:37.800Z,10.44
2023-01-19T16:29:09.000Z,10.11
2023-01-19T16:31:36.797Z,10.73
2023-01-19T16:34:03.797Z,9.73
2023-01-19T16:36:32.369Z,11.06
2023-01-19T16:39:06.853Z,11.09
2023-01-19T16:41:34.287Z,10.88
2023-01-19T16:44:01.181Z,11.42
2023-01-19T16:46:30.200Z,11.09
2023-01-19T16:49:04.364Z,10.67
2023-01-19T16:51:31.842Z,10.76
2023-01-19T16:53:58.694Z,11.44
2023-01-19T16:56:25.450Z,11.38
2023-01-19T16:58:56.227Z,11.40
2023-01-19T17:01:23.431Z,11.06
2023-01-19T17:03:50.463Z,10.23
2023-01-19T17:06:18.445Z,10.40
2023-01-19T17:08:45.228Z,11.43
2023-01-19T17:11:22.684Z,11.51
2023-01-19T17:13:55.577Z,11.51
2023-01-19T17:16:26.230Z,11.09
2023-01-19T17:18:53.594Z,11.22
2023-01-19T17:21:20.446Z,11.42
2023-01-19T17:23:48.512Z,11.38
2023-01-19T17:26:16.101Z,10.82
2023-01-19T17:28:43.204Z,11.48
2023-01-19T17:31:14.287Z,11.58
2023-01-19T17:33:43.071Z,10.36
2023-01-19T17:36:13.059Z,11.58
2023-01-19T17:38:40.507Z,10.17
2023-01-19T17:41:16.919Z,11.61
2023-01-19T17:43:44.343Z,10.40
2023-01-19T17:46:11.294Z,11.00
2023-01-19T17:48:38.297Z,11.03
2023-01-19T17:51:06.145Z,11.50
2023-01-19T17:53:36.572Z,11.63
2023-01-19T17:56:08.256Z,11.49
2023-01-19T17:58:35.139Z,11.12
2023-01-19T18:01:12.639Z,11.62
2023-01-19T18:03:39.774Z,11.41
2023-01-19T18:06:07.043Z,11.09
2023-01-19T18:08:34.906Z,11.46
2023-01-19T18:11:01.808Z,11.53
2023-01-19T18:13:29.179Z,11.66
2023-01-19T18:16:08.022Z,11.20
2023-01-19T18:18:35.447Z,11.69
2023-01-19T18:21:04.067Z,11.46
2023-01-19T18:23:31.095Z,11.45
2023-01-19T18:25:59.973Z,11.64
2023-01-19T18:28:26.986Z,11.49
2023-01-19T18:30:54.626Z,11.20
2023-01-19T18:33:21.514Z,11.70
2023-01-19T18:35:48.549Z,11.03
2023-01-19T18:38:15.448Z,11.51
2023-01-19T18:40:42.338Z,11.57
2023-01-19T18:43:09.810Z,11.74
2023-01-19T18:45:38.402Z,11.59
2023-01-19T18:48:05.443Z,11.24
2023-01-19T18:50:32.731Z,11.73
2023-01-19T18:52:59.905Z,11.73
2023-01-19T18:55:26.771Z,11.34
2023-01-19T18:57:53.921Z,11.44
2023-01-19T19:00:21.186Z,11.65
2023-01-19T19:02:47.996Z,11.65
2023-01-19T19:05:15.118Z,11.74
2023-01-19T19:07:57.626Z,11.69
2023-01-19T19:10:24.599Z,11.57
2023-01-19T19:12:51.356Z,11.39
2023-01-19T19:15:18.280Z,11.49
2023-01-19T19:17:45.023Z,11.31
2023-01-19T19:20:12.753Z,11.63
2023-01-19T19:22:39.972Z,11.49
2023-01-19T19:25:07.029Z,11.72
2023-01-19T19:27:33.812Z,11.70
2023-01-19T19:30:00.618Z,11.41
2023-01-19T19:32:27.379Z,11.37
2023-01-19T19:34:55.839Z,11.58
2023-01-19T19:37:22.672Z,11.62
2023-01-19T19:39:49.694Z,11.39
2023-01-19T19:42:16.477Z,11.59
2023-01-19T19:44:43.362Z,11.41
2023-01-19T19:47:10.073Z,11.67
2023-01-19T19:49:36.925Z,11.41
2023-01-19T19:52:03.847Z,11.76
2023-01-19T19:54:30.623Z,11.76
2023-01-19T19:56:57.349Z,11.70
2023-01-19T19:59:24.296Z,11.68
2023-01-19T20:01:54.039Z,11.78
2023-01-19T20:04:22.941Z,11.78
2023-01-19T20:06:50.089Z,11.53
2023-01-19T20:09:17.171Z,11.76
2023-01-19T20:11:45.115Z,11.68
2023-01-19T20:14:12.776Z,11.54
2023-01-19T20:16:39.910Z,11.77
2023-01-19T20:19:06.990Z,11.81
2023-01-19T20:21:37.484Z,11.84
2023-01-19T20:24:06.473Z,11.78
2023-01-19T20:26:36.737Z,11.59
2023-01-19T20:29:06.937Z,11.51
2023-01-19T20:31:35.449Z,11.76
2023-01-19T20:34:04.843Z,11.83
2023-01-19T20:36:32.594Z,11.91
2023-01-19T20:38:59.726Z,11.85
2023-01-19T20:41:26.729Z,11.93
2023-01-19T20:43:53.779Z,11.85
2023-01-19T20:46:20.563Z,11.77
2023-01-19T20:48:53.125Z,11.84
2023-01-19T20:51:20.685Z,11.89
2023-01-19T20:53:47.604Z,11.84
2023-01-19T20:56:14.686Z,11.93
2023-01-19T20:58:41.599Z,11.75
2023-01-19T21:01:15.622Z,11.97
2023-01-19T21:03:42.684Z,11.85
2023-01-19T21:06:09.676Z,11.78
2023-01-19T21:08:37.030Z,11.79
2023-01-19T21:11:04.285Z,12.00
2023-01-19T21:13:31.746Z,11.95
2023-01-19T21:15:59.192Z,11.95
2023-01-19T21:18:28.060Z,11.97
2023-01-19T21:20:55.650Z,11.95
2023-01-19T21:23:22.402Z,12.04
2023-01-19T21:25:53.089Z,12.05
2023-01-19T21:28:20.020Z,11.87
2023-01-19T21:30:46.852Z,12.07
2023-01-19T21:33:13.979Z,12.05
2023-01-19T21:35:40.711Z,12.07
2023-01-19T21:38:07.645Z,12.05
2023-01-19T21:40:34.527Z,12.11
2023-01-19T21:43:01.383Z,12.06
2023-01-19T21:45:28.212Z,12.07
2023-01-19T21:47:55.104Z,12.09
2023-01-19T21:50:21.884Z,12.06
2023-01-19T21:52:48.629Z,12.12
2023-01-19T21:55:15.701Z,12.11
2023-01-19T21:57:42.609Z,12.11
2023-01-19T22:00:10.465Z,12.01
2023-01-19T22:02:39.096Z,12.12
2023-01-19T22:05:06.721Z,12.04
2023-01-19T22:07:33.461Z,12.00
2023-01-19T22:10:00.494Z,12.14
2023-01-19T22:12:27.426Z,11.98
2023-01-19T22:14:54.322Z,12.05
2023-01-19T22:17:21.119Z,12.02
2023-01-19T22:19:48.468Z,12.01
2023-01-19T22:22:15.442Z,11.97
2023-01-19T22:24:46.726Z,12.03
2023-01-19T22:27:13.637Z,12.19
2023-01-19T22:29:40.362Z,12.19
2023-01-19T22:32:07.329Z,12.04
2023-01-19T22:34:34.318Z,11.97
2023-01-19T22:37:01.288Z,12.21
2023-01-19T22:39:28.243Z,12.11
2023-01-19T22:41:54.989Z,12.21
2023-01-19T22:44:22.031Z,12.11
2023-01-19T22:46:49.691Z,12.06
2023-01-19T22:49:17.559Z,12.03
2023-01-19T22:51:44.563Z,12.02
2023-01-19T22:54:11.584Z,12.19
2023-01-19T22:56:38.841Z,11.84
2023-01-19T22:59:06.059Z,12.09
2023-01-19T23:01:37.091Z,11.91
2023-01-19T23:04:04.659Z,12.24
2023-01-19T23:06:33.709Z,11.86
2023-01-19T23:09:01.925Z,11.67
2023-01-19T23:11:39.556Z,11.86
2023-01-19T23:14:11.752Z,12.05
2023-01-19T23:16:38.714Z,12.23
2023-01-19T23:19:05.714Z,11.78
2023-01-19T23:21:32.824Z,12.13
2023-01-19T23:24:01.281Z,12.23
2023-01-19T23:26:28.840Z,12.19
2023-01-19T23:28:56.853Z,12.23
2023-01-19T23:31:31.081Z,11.85
2023-01-19T23:34:03.031Z,12.22
2023-01-19T23:36:32.230Z,11.99
2023-01-19T23:39:01.394Z,12.07
2023-01-19T23:41:29.072Z,12.26
2023-01-19T23:43:55.983Z,11.34
2023-01-19T23:46:22.972Z,12.11
2023-01-19T23:48:50.327Z,12.20
2023-01-19T23:51:19.034Z,12.16
2023-01-19T23:53:45.965Z,11.93
2023-01-19T23:56:14.613Z,11.98
2023-01-19T23:58:41.830Z,12.30
